Terminal Aerodrome Forecast
Issued by NWS

Home | Current Version | Previous Version | Text Only | Print | Product List | Glossary On
Versions: 1 2 3 4 5 6 7 8 9 10 11 12 13 14 15 16 17 18 19 20 21
000
FTUS45 KBOU 011924 AAA
TAFAPA
TAF AMD
KAPA 011924Z 0119/0218 35008KT P6SM -SN SCT009 BKN015 OVC025
     FM012100 01010KT 6SM -SHSNRA SCT015 OVC025
     FM020300 06008KT P6SM VCSH SCT015 BKN025 OVC050
     FM020500 16005KT P6SM SCT025 BKN050
     FM021000 19006KT P6SM FEW050 SCT100
     FM021500 VRB05KT P6SM FEW100=

USA.gov is the U.S. government's official web portal to all federal, state and local government web resources and services.